createdAt,value
2022-12-04T00:01:24.899Z,89.52
2022-12-04T00:03:54.626Z,89.69
2022-12-04T00:06:23.226Z,89.51
2022-12-04T00:08:52.339Z,89.85
2022-12-04T00:11:24.412Z,90.32
2022-12-04T00:13:54.147Z,89.58
2022-12-04T00:16:26.440Z,90.62
2022-12-04T00:18:57.415Z,89.96
2022-12-04T00:21:26.783Z,90.14
2022-12-04T00:23:55.438Z,90.55
2022-12-04T00:26:27.969Z,90.12
2022-12-04T00:29:01.324Z,89.80
2022-12-04T00:31:31.448Z,91.38
2022-12-04T00:34:00.559Z,90.92
2022-12-04T00:36:30.064Z,90.61
2022-12-04T00:39:00.361Z,90.46
2022-12-04T00:41:29.875Z,91.38
2022-12-04T00:43:58.173Z,91.20
2022-12-04T00:46:28.346Z,90.85
2022-12-04T00:48:56.674Z,90.95
2022-12-04T00:51:26.209Z,90.83
2022-12-04T00:53:54.326Z,91.41
2022-12-04T00:56:24.914Z,91.32
2022-12-04T00:58:54.159Z,90.55
2022-12-04T01:01:23.495Z,91.02
2022-12-04T01:03:53.315Z,90.15
2022-12-04T01:06:23.588Z,90.64
2022-12-04T01:08:53.289Z,90.61
2022-12-04T01:11:22.349Z,90.31
2022-12-04T01:13:50.596Z,90.85
2022-12-04T01:16:20.462Z,91.24
2022-12-04T01:18:48.713Z,90.68
2022-12-04T01:21:18.590Z,90.58
2022-12-04T01:23:46.579Z,91.13
2022-12-04T01:26:14.911Z,90.81
2022-12-04T01:28:42.898Z,90.86
2022-12-04T01:31:13.191Z,90.99
2022-12-04T01:33:42.506Z,92.31
2022-12-04T01:36:13.644Z,91.64
2022-12-04T01:38:43.451Z,92.46
2022-12-04T01:41:13.129Z,92.80
2022-12-04T01:43:42.010Z,92.38
2022-12-04T01:46:12.025Z,92.79
2022-12-04T01:48:45.543Z,92.67
2022-12-04T01:51:17.804Z,92.82
2022-12-04T01:53:52.601Z,92.61
2022-12-04T01:56:22.556Z,92.52
2022-12-04T01:58:55.473Z,93.34
2022-12-04T02:01:23.897Z,93.51
2022-12-04T02:03:51.840Z,92.50
2022-12-04T02:06:19.968Z,93.17
2022-12-04T02:08:49.356Z,93.10
2022-12-04T02:11:28.064Z,92.84
2022-12-04T02:14:08.743Z,93.01
2022-12-04T02:16:44.716Z,93.96
2022-12-04T02:19:34.449Z,93.85
2022-12-04T02:22:11.077Z,94.08
2022-12-04T02:24:53.736Z,93.62
2022-12-04T02:27:35.550Z,93.10
2022-12-04T02:30:07.836Z,93.75
2022-12-04T02:32:43.433Z,93.04
2022-12-04T02:35:17.460Z,93.84
2022-12-04T02:37:53.140Z,93.55
2022-12-04T02:40:26.688Z,93.27
2022-12-04T02:42:59.391Z,94.25
2022-12-04T02:45:33.249Z,93.53
2022-12-04T02:48:04.079Z,93.35
2022-12-04T02:50:35.379Z,93.11
2022-12-04T02:53:09.745Z,93.05
2022-12-04T02:55:43.193Z,93.79
2022-12-04T02:58:15.733Z,93.91
2022-12-04T03:00:48.457Z,93.63
2022-12-04T03:03:21.542Z,93.96
2022-12-04T03:05:56.430Z,94.14
2022-12-04T03:08:29.901Z,93.37
2022-12-04T03:11:01.335Z,94.34
2022-12-04T03:13:34.014Z,93.64
2022-12-04T03:16:08.402Z,93.93
2022-12-04T03:18:41.314Z,93.33
2022-12-04T03:21:12.634Z,94.54
2022-12-04T03:23:47.365Z,93.86
2022-12-04T03:26:24.864Z,93.82
2022-12-04T03:28:58.976Z,93.75
2022-12-04T03:31:39.231Z,94.41
2022-12-04T03:34:09.633Z,94.26
2022-12-04T03:36:40.691Z,94.07
2022-12-04T03:39:18.936Z,94.36
2022-12-04T03:41:58.513Z,94.00
2022-12-04T03:44:32.962Z,94.18
2022-12-04T03:47:07.389Z,93.99
2022-12-04T03:49:43.896Z,94.01
2022-12-04T03:52:18.122Z,93.82
2022-12-04T03:54:50.419Z,94.73
2022-12-04T03:57:22.150Z,93.98
2022-12-04T03:59:56.126Z,94.46
2022-12-04T04:02:29.469Z,94.04
2022-12-04T04:05:00.822Z,94.27
2022-12-04T04:07:35.748Z,94.20
2022-12-04T04:10:08.832Z,94.04
2022-12-04T04:12:39.930Z,94.46
2022-12-04T04:15:30.559Z,94.68
2022-12-04T04:18:19.856Z,94.23
2022-12-04T04:21:08.858Z,94.71
2022-12-04T04:23:59.187Z,94.11
2022-12-04T04:26:30.286Z,94.16
2022-12-04T04:28:58.226Z,94.16
2022-12-04T04:31:27.508Z,93.70
2022-12-04T04:34:04.166Z,94.01
2022-12-04T04:36:39.336Z,93.89
2022-12-04T04:39:16.601Z,93.08
2022-12-04T04:41:51.859Z,93.31
2022-12-04T04:44:28.929Z,93.87
2022-12-04T04:47:01.528Z,94.11
2022-12-04T04:49:33.542Z,93.73
2022-12-04T04:52:02.087Z,93.18
2022-12-04T04:54:32.036Z,93.85
2022-12-04T04:57:00.005Z,93.33
2022-12-04T04:59:27.986Z,93.16
2022-12-04T05:01:55.977Z,93.53
2022-12-04T05:04:24.092Z,93.16
2022-12-04T05:06:53.289Z,93.74
2022-12-04T05:09:21.234Z,93.42
2022-12-04T05:11:49.221Z,93.91
2022-12-04T05:14:16.902Z,94.03
2022-12-04T05:16:44.811Z,93.60
2022-12-04T05:19:35.469Z,93.52
2022-12-04T05:22:04.741Z,93.13
2022-12-04T05:24:32.588Z,93.35
2022-12-04T05:27:00.301Z,92.02
2022-12-04T05:29:32.767Z,92.68
2022-12-04T05:32:03.680Z,92.93
2022-12-04T05:34:31.656Z,93.55
2022-12-04T05:36:59.673Z,92.71
2022-12-04T05:39:28.974Z,91.86
2022-12-04T05:41:56.897Z,92.62
2022-12-04T05:44:24.868Z,92.73
2022-12-04T05:46:54.818Z,92.51
2022-12-04T05:49:22.740Z,92.98
2022-12-04T05:51:51.088Z,93.23
2022-12-04T05:54:19.576Z,92.75
2022-12-04T05:56:49.247Z,92.82
2022-12-04T05:59:17.841Z,92.96
2022-12-04T06:01:46.038Z,92.21
2022-12-04T06:04:14.083Z,92.05
2022-12-04T06:06:42.148Z,91.91
2022-12-04T06:09:10.287Z,92.29
2022-12-04T06:11:40.032Z,92.00
2022-12-04T06:14:12.626Z,92.08
2022-12-04T06:16:43.341Z,92.63
2022-12-04T06:19:13.830Z,92.81
2022-12-04T06:21:43.547Z,92.06
2022-12-04T06:24:14.681Z,92.54
2022-12-04T06:27:03.864Z,92.42
2022-12-04T06:29:32.140Z,91.95
2022-12-04T06:32:00.628Z,92.99
2022-12-04T06:34:29.608Z,92.45
2022-12-04T06:36:57.569Z,92.79
2022-12-04T06:39:25.499Z,92.17
2022-12-04T06:41:53.385Z,92.97
2022-12-04T06:44:21.478Z,92.29
2022-12-04T06:46:50.745Z,92.42
2022-12-04T06:49:22.605Z,92.42
2022-12-04T06:51:50.620Z,92.28
2022-12-04T06:54:18.708Z,92.36
2022-12-04T06:56:46.628Z,91.77
2022-12-04T06:59:14.709Z,92.33
2022-12-04T07:01:42.743Z,91.28
2022-12-04T07:04:12.268Z,92.38
2022-12-04T07:06:40.861Z,92.13
2022-12-04T07:09:11.138Z,92.40
2022-12-04T07:11:40.414Z,91.84
2022-12-04T07:14:08.981Z,92.42
2022-12-04T07:16:41.040Z,92.36
2022-12-04T07:19:10.201Z,91.94
2022-12-04T07:21:39.551Z,92.03
2022-12-04T07:24:07.869Z,91.61
2022-12-04T07:26:35.913Z,92.14
2022-12-04T07:29:03.988Z,92.10
2022-12-04T07:31:32.002Z,91.09
2022-12-04T07:34:00.064Z,92.19
2022-12-04T07:36:28.746Z,91.87
2022-12-04T07:38:58.310Z,91.67
2022-12-04T07:41:26.362Z,91.66
2022-12-04T07:43:55.218Z,91.99
2022-12-04T07:46:25.626Z,91.98
2022-12-04T07:48:55.575Z,92.02
2022-12-04T07:51:25.767Z,92.24
2022-12-04T07:53:54.890Z,91.27
2022-12-04T07:56:24.273Z,91.28
2022-12-04T07:58:52.194Z,90.99
2022-12-04T08:01:22.760Z,90.56
2022-12-04T08:03:53.211Z,91.81
2022-12-04T08:06:22.814Z,90.52
2022-12-04T08:08:51.478Z,90.72
2022-12-04T08:11:22.225Z,92.06
2022-12-04T08:13:55.622Z,91.33
2022-12-04T08:16:23.935Z,91.23
2022-12-04T08:18:52.173Z,91.60
2022-12-04T08:21:23.220Z,91.56
2022-12-04T08:23:53.228Z,91.11
2022-12-04T08:26:22.109Z,90.53
2022-12-04T08:28:53.606Z,90.55
2022-12-04T08:31:24.027Z,91.61
2022-12-04T08:33:55.150Z,90.88
2022-12-04T08:36:23.358Z,91.56
2022-12-04T08:38:52.331Z,91.16
2022-12-04T08:41:24.074Z,91.04
2022-12-04T08:43:55.444Z,91.08
2022-12-04T08:46:24.907Z,90.75
2022-12-04T08:48:52.958Z,91.56
2022-12-04T08:51:22.891Z,91.10
2022-12-04T08:53:54.616Z,91.26
2022-12-04T08:56:22.710Z,91.22
2022-12-04T08:58:50.592Z,91.18
2022-12-04T09:01:20.125Z,91.30
2022-12-04T09:03:48.088Z,90.98
2022-12-04T09:06:16.920Z,90.91
2022-12-04T09:08:45.576Z,90.33
2022-12-04T09:11:16.092Z,90.67
2022-12-04T09:13:44.827Z,90.43
2022-12-04T09:16:15.277Z,90.22
2022-12-04T09:18:45.317Z,90.54
2022-12-04T09:21:16.862Z,90.33
2022-12-04T09:23:45.499Z,90.69
2022-12-04T09:26:23.098Z,90.57
2022-12-04T09:28:52.361Z,90.40
2022-12-04T09:31:21.151Z,90.69
2022-12-04T09:33:50.728Z,91.76
2022-12-04T09:36:18.727Z,92.20
2022-12-04T09:38:47.965Z,91.00
2022-12-04T09:41:30.589Z,90.93
2022-12-04T09:44:03.636Z,90.80
2022-12-04T09:46:37.449Z,91.22
2022-12-04T09:49:15.522Z,89.90
2022-12-04T09:51:44.025Z,91.34
2022-12-04T09:54:16.974Z,90.38
2022-12-04T09:56:46.555Z,90.26
2022-12-04T09:59:18.383Z,91.19
2022-12-04T10:01:49.573Z,90.02
2022-12-04T10:04:20.511Z,91.08
2022-12-04T10:06:57.192Z,90.91
2022-12-04T10:09:32.699Z,90.34
2022-12-04T10:12:13.569Z,91.39
2022-12-04T10:14:56.219Z,90.31
2022-12-04T10:17:39.334Z,90.98
2022-12-04T10:20:24.538Z,90.80
2022-12-04T10:23:09.289Z,90.97
2022-12-04T10:25:42.888Z,91.56
2022-12-04T10:28:20.107Z,91.38
2022-12-04T10:30:49.388Z,92.01
2022-12-04T10:33:21.034Z,90.77
2022-12-04T10:35:53.382Z,91.54
2022-12-04T10:38:31.411Z,91.30
2022-12-04T10:41:03.717Z,91.81
2022-12-04T10:43:37.357Z,92.01
2022-12-04T10:46:06.697Z,92.35
2022-12-04T10:48:39.652Z,91.63
2022-12-04T10:51:15.197Z,92.36
2022-12-04T10:53:43.367Z,92.44
2022-12-04T10:56:13.094Z,92.06
2022-12-04T10:58:41.340Z,91.90
2022-12-04T11:01:12.571Z,92.47
2022-12-04T11:03:41.453Z,92.54
2022-12-04T11:06:11.780Z,93.28
2022-12-04T11:08:42.636Z,93.16
2022-12-04T11:11:13.537Z,92.77
2022-12-04T11:13:42.410Z,92.36
2022-12-04T11:16:30.546Z,92.63
2022-12-04T11:18:58.578Z,92.72
2022-12-04T11:21:31.675Z,92.89
2022-12-04T11:23:59.691Z,92.53
2022-12-04T11:26:32.600Z,93.33
2022-12-04T11:29:02.412Z,93.06
2022-12-04T11:31:31.385Z,92.34
2022-12-04T11:34:02.617Z,93.75
2022-12-04T11:36:35.837Z,92.96
2022-12-04T11:39:08.338Z,93.23
2022-12-04T11:41:36.246Z,93.09
2022-12-04T11:44:07.181Z,94.17
2022-12-04T11:46:36.030Z,92.73
2022-12-04T11:49:04.396Z,92.81
2022-12-04T11:51:48.561Z,93.01
2022-12-04T11:54:29.910Z,94.00
2022-12-04T11:57:09.584Z,92.43
2022-12-04T11:59:51.253Z,93.55
2022-12-04T12:02:45.394Z,92.45
2022-12-04T12:05:25.498Z,93.99
2022-12-04T12:08:06.861Z,93.82
2022-12-04T12:10:44.759Z,93.33
2022-12-04T12:13:22.231Z,93.80
2022-12-04T12:15:59.411Z,93.81
2022-12-04T12:18:47.419Z,94.36
2022-12-04T12:21:23.048Z,93.17
2022-12-04T12:24:05.489Z,93.86
2022-12-04T12:26:46.212Z,93.68
2022-12-04T12:29:24.364Z,94.29
2022-12-04T12:32:14.622Z,94.73
2022-12-04T12:34:44.962Z,93.55
2022-12-04T12:37:22.187Z,94.71
2022-12-04T12:40:01.040Z,94.21
2022-12-04T12:42:33.743Z,94.12
2022-12-04T12:45:08.567Z,93.90
2022-12-04T12:47:41.771Z,93.96
2022-12-04T12:50:16.441Z,93.91
2022-12-04T12:52:53.445Z,94.58
2022-12-04T12:55:26.642Z,93.58
2022-12-04T12:58:02.794Z,93.36
2022-12-04T13:00:34.793Z,94.93
2022-12-04T13:03:05.800Z,94.90
2022-12-04T13:05:38.786Z,94.80
2022-12-04T13:08:16.430Z,94.54
2022-12-04T13:10:48.993Z,94.85
2022-12-04T13:13:25.940Z,94.40
2022-12-04T13:15:57.881Z,93.76
2022-12-04T13:18:28.903Z,94.54
2022-12-04T13:21:02.641Z,94.47
2022-12-04T13:23:50.553Z,94.20
2022-12-04T13:26:49.495Z,94.61
2022-12-04T13:29:31.376Z,94.30
2022-12-04T13:32:09.505Z,95.13
2022-12-04T13:34:47.664Z,94.95
2022-12-04T13:37:49.416Z,95.74
2022-12-04T13:40:33.457Z,95.48
2022-12-04T13:43:28.701Z,95.49
2022-12-04T13:45:59.177Z,95.24
2022-12-04T13:48:37.518Z,95.13
2022-12-04T13:51:22.389Z,95.38
2022-12-04T13:54:02.664Z,95.28
2022-12-04T13:56:32.338Z,95.64
2022-12-04T13:59:04.137Z,95.82
2022-12-04T14:01:38.640Z,95.47
2022-12-04T14:04:07.810Z,95.67
2022-12-04T14:06:39.373Z,95.75
2022-12-04T14:09:19.519Z,95.16
2022-12-04T14:11:52.094Z,95.77
2022-12-04T14:14:27.916Z,95.26
2022-12-04T14:16:57.810Z,96.37
2022-12-04T14:19:35.591Z,95.62
2022-12-04T14:22:04.296Z,95.46
2022-12-04T14:24:38.761Z,95.02
2022-12-04T14:27:33.156Z,95.71
2022-12-04T14:30:03.603Z,95.68
2022-12-04T14:32:35.049Z,96.31
2022-12-04T14:35:03.400Z,95.70
2022-12-04T14:37:38.773Z,96.09
2022-12-04T14:40:15.877Z,95.60
2022-12-04T14:42:43.827Z,95.89
2022-12-04T14:45:26.559Z,94.85
2022-12-04T14:48:09.657Z,95.51
2022-12-04T14:50:47.127Z,96.08
2022-12-04T14:53:24.783Z,96.31
2022-12-04T14:56:05.928Z,96.75
2022-12-04T14:58:38.933Z,96.28
2022-12-04T15:01:28.403Z,95.92
2022-12-04T15:04:00.078Z,95.12
2022-12-04T15:06:30.548Z,95.84
2022-12-04T15:09:16.253Z,96.27
2022-12-04T15:12:05.094Z,95.54
2022-12-04T15:14:41.820Z,96.64
2022-12-04T15:17:12.950Z,96.14
2022-12-04T15:19:41.330Z,95.60
2022-12-04T15:22:14.183Z,96.58
2022-12-04T15:24:42.311Z,96.89
2022-12-04T15:27:12.378Z,96.27
2022-12-04T15:29:48.083Z,96.04
2022-12-04T15:32:20.461Z,96.88
2022-12-04T15:34:52.613Z,96.70
2022-12-04T15:37:23.650Z,96.58
2022-12-04T15:39:52.804Z,96.21
2022-12-04T15:42:27.540Z,96.55
2022-12-04T15:45:00.958Z,95.89
2022-12-04T15:47:32.886Z,96.65
2022-12-04T15:50:09.770Z,96.44
2022-12-04T15:52:38.413Z,96.13
2022-12-04T15:55:09.016Z,96.79
2022-12-04T15:57:39.571Z,96.81
2022-12-04T16:00:23.263Z,97.02
2022-12-04T16:02:52.850Z,96.55
2022-12-04T16:05:36.461Z,96.05
2022-12-04T16:08:23.692Z,96.74
2022-12-04T16:11:00.643Z,96.17
2022-12-04T16:13:32.420Z,96.08
2022-12-04T16:16:01.130Z,96.80
2022-12-04T16:18:30.625Z,96.44
2022-12-04T16:20:58.678Z,96.24
2022-12-04T16:23:27.181Z,95.91
2022-12-04T16:25:55.133Z,96.66
2022-12-04T16:28:23.084Z,96.13
2022-12-04T16:30:52.618Z,97.02
2022-12-04T16:33:20.947Z,96.24
2022-12-04T16:35:50.485Z,96.32
2022-12-04T16:38:18.844Z,95.96
2022-12-04T16:40:48.443Z,96.81
2022-12-04T16:43:18.074Z,96.12
2022-12-04T16:45:48.183Z,96.25
2022-12-04T16:48:16.256Z,96.48
2022-12-04T16:50:44.953Z,96.45
2022-12-04T16:53:19.922Z,96.61
2022-12-04T16:55:50.194Z,96.45
2022-12-04T16:58:19.337Z,96.96
2022-12-04T17:00:52.905Z,96.54
2022-12-04T17:03:25.412Z,96.76
2022-12-04T17:05:53.426Z,96.56
2022-12-04T17:08:23.324Z,96.42
2022-12-04T17:10:51.748Z,96.31
2022-12-04T17:13:20.407Z,96.11
2022-12-04T17:15:48.861Z,96.22
2022-12-04T17:18:21.071Z,96.71
2022-12-04T17:20:50.144Z,96.25
2022-12-04T17:23:18.125Z,96.28
2022-12-04T17:25:47.473Z,96.62
2022-12-04T17:28:15.676Z,96.23
2022-12-04T17:30:46.086Z,96.02
2022-12-04T17:33:15.264Z,96.53
2022-12-04T17:35:44.516Z,96.80
2022-12-04T17:38:12.535Z,96.23
2022-12-04T17:40:40.721Z,96.02
2022-12-04T17:43:10.066Z,96.22
2022-12-04T17:45:40.859Z,96.25
2022-12-04T17:48:08.802Z,96.24
2022-12-04T17:50:36.753Z,95.88
2022-12-04T17:53:04.685Z,97.58
2022-12-04T17:55:32.664Z,97.28
2022-12-04T17:58:00.658Z,96.03
2022-12-04T18:00:29.983Z,96.68
2022-12-04T18:02:58.112Z,96.10
2022-12-04T18:05:26.120Z,96.25
2022-12-04T18:07:54.102Z,95.94
2022-12-04T18:10:22.195Z,95.75
2022-12-04T18:12:50.129Z,96.76
2022-12-04T18:15:18.065Z,96.29
2022-12-04T18:17:47.413Z,96.16
2022-12-04T18:20:15.496Z,96.59
2022-12-04T18:22:46.278Z,96.17
2022-12-04T18:25:14.370Z,97.35
2022-12-04T18:27:42.550Z,97.50
2022-12-04T18:30:11.858Z,97.04
2022-12-04T18:32:39.925Z,97.40
2022-12-04T18:35:10.032Z,97.39
2022-12-04T18:37:38.010Z,97.46
2022-12-04T18:40:07.853Z,97.59
2022-12-04T18:42:36.060Z,97.12
2022-12-04T18:45:04.447Z,96.55
2022-12-04T18:47:32.531Z,96.94
2022-12-04T18:50:00.769Z,96.63
2022-12-04T18:52:30.253Z,96.61
2022-12-04T18:54:58.240Z,96.27
2022-12-04T18:57:26.252Z,96.62
2022-12-04T18:59:54.715Z,96.38
2022-12-04T19:02:23.089Z,96.18
2022-12-04T19:04:51.336Z,96.63
2022-12-04T19:07:19.695Z,97.03
2022-12-04T19:12:37.135Z,96.69
2022-12-04T19:15:05.784Z,96.79
2022-12-04T19:17:33.762Z,96.88
2022-12-04T19:20:01.768Z,96.79
2022-12-04T19:22:30.529Z,96.33
2022-12-04T19:24:59.923Z,96.83
2022-12-04T19:27:27.928Z,96.13
2022-12-04T19:29:56.247Z,96.42
2022-12-04T19:32:25.116Z,96.01
2022-12-04T19:34:53.196Z,96.53
2022-12-04T19:37:21.115Z,96.43
2022-12-04T19:39:49.029Z,96.25
2022-12-04T19:42:18.361Z,96.01
2022-12-04T19:44:49.134Z,95.88
2022-12-04T19:47:18.571Z,95.69
2022-12-04T19:49:46.675Z,96.36
2022-12-04T19:52:14.890Z,96.17
2022-12-04T19:54:43.134Z,96.07
2022-12-04T19:57:11.154Z,95.77
2022-12-04T19:59:45.753Z,96.44
2022-12-04T20:02:15.116Z,96.18
2022-12-04T20:04:43.568Z,96.24
2022-12-04T20:07:11.544Z,96.20
2022-12-04T20:09:39.672Z,95.95
2022-12-04T20:12:08.125Z,96.06
2022-12-04T20:14:36.281Z,96.64
2022-12-04T20:17:05.699Z,96.60
2022-12-04T20:19:33.810Z,96.08
2022-12-04T20:22:01.791Z,96.14
2022-12-04T20:24:29.778Z,96.07
2022-12-04T20:26:57.855Z,96.21
2022-12-04T20:29:25.918Z,96.09
2022-12-04T20:31:53.952Z,96.67
2022-12-04T20:34:23.366Z,96.77
2022-12-04T20:36:51.346Z,96.47
2022-12-04T20:39:20.684Z,96.27
2022-12-04T20:41:49.131Z,96.54
2022-12-04T20:44:19.235Z,96.55
2022-12-04T20:46:47.385Z,96.49
2022-12-04T20:49:22.105Z,96.60
2022-12-04T20:51:53.221Z,96.68
2022-12-04T20:54:23.203Z,96.08
2022-12-04T20:56:53.098Z,96.35
2022-12-04T20:59:23.260Z,95.83
2022-12-04T21:01:52.483Z,96.66
2022-12-04T21:04:21.195Z,96.13
2022-12-04T21:06:49.165Z,96.83
2022-12-04T21:09:22.532Z,95.83
2022-12-04T21:11:52.477Z,96.36
2022-12-04T21:14:40.272Z,96.56
2022-12-04T21:17:16.624Z,96.28
2022-12-04T21:19:44.644Z,96.32
2022-12-04T21:22:12.624Z,96.41
2022-12-04T21:24:42.194Z,96.68
2022-12-04T21:27:13.371Z,96.00
2022-12-04T21:29:45.246Z,96.36
2022-12-04T21:32:13.206Z,96.34
2022-12-04T21:34:41.127Z,96.19
2022-12-04T21:37:09.020Z,96.20
2022-12-04T21:39:39.024Z,96.37
2022-12-04T21:42:25.556Z,96.16
2022-12-04T21:44:53.541Z,96.75
2022-12-04T21:47:21.440Z,96.52
2022-12-04T21:49:49.490Z,96.85
2022-12-04T21:52:18.099Z,96.45
2022-12-04T21:54:49.145Z,96.98
2022-12-04T21:57:19.161Z,96.68
2022-12-04T21:59:47.427Z,96.27
2022-12-04T22:02:16.399Z,95.95
2022-12-04T22:04:44.358Z,95.84
2022-12-04T22:07:12.783Z,95.93
2022-12-04T22:09:40.683Z,96.14
2022-12-04T22:14:58.342Z,95.93
2022-12-04T22:17:30.435Z,96.23
2022-12-04T22:19:58.631Z,96.41
2022-12-04T22:22:26.839Z,95.43
2022-12-04T22:24:54.738Z,95.96
2022-12-04T22:27:22.737Z,96.03
2022-12-04T22:30:02.212Z,96.57
2022-12-04T22:32:33.490Z,96.45
2022-12-04T22:35:01.392Z,95.76
2022-12-04T22:37:29.333Z,96.11
2022-12-04T22:39:57.583Z,95.96
2022-12-04T22:42:25.892Z,96.49
2022-12-04T22:44:53.886Z,96.27
2022-12-04T22:47:21.794Z,96.27
2022-12-04T22:49:51.107Z,95.91
2022-12-04T22:52:19.924Z,96.32
2022-12-04T22:54:47.820Z,96.75
2022-12-04T22:57:15.749Z,96.33
2022-12-04T22:59:43.719Z,96.38
2022-12-04T23:02:12.965Z,96.30
2022-12-04T23:04:41.013Z,95.97
2022-12-04T23:07:10.488Z,96.01
2022-12-04T23:09:39.153Z,96.28
2022-12-04T23:12:07.713Z,96.25
2022-12-04T23:14:36.762Z,97.01
2022-12-04T23:17:04.826Z,96.27
2022-12-04T23:19:32.883Z,96.20
2022-12-04T23:22:00.801Z,96.61
2022-12-04T23:24:30.212Z,96.39
2022-12-04T23:26:58.193Z,95.92
2022-12-04T23:32:14.075Z,96.61
2022-12-04T23:34:41.938Z,96.89
2022-12-04T23:37:09.842Z,96.63
2022-12-04T23:39:39.224Z,96.24
2022-12-04T23:42:07.163Z,96.91
2022-12-04T23:44:35.061Z,96.44
2022-12-04T23:47:03.046Z,96.04
2022-12-04T23:49:31.014Z,96.83
2022-12-04T23:51:58.951Z,96.85
2022-12-04T23:54:27.257Z,96.05
2022-12-04T23:56:56.530Z,96.31
2022-12-04T23:59:24.391Z,96.52
